Date,TemperatureHighF,TemperatureAvgF,TemperatureLowF,DewpointHighF,DewpointAvgF,DewpointLowF,HumidityHigh,HumidityAvg,HumidityLow,PressureMaxIn,PressureMinIn,WindSpeedMaxMPH,WindSpeedAvgMPH,GustSpeedMaxMPH,PrecipitationSumIn
2013-1-1,53.8,45.9,35.3,51.9,42.3,30.9,94,88,72,30.03,29.76,8,2,8,0.05
2013-1-2,45.0,35.4,25.7,34.5,29.1,22.0,86,78,60,30.10,30.00,6,1,6,0.00
2013-1-3,49.9,36.1,22.7,37.8,28.5,19.4,90,75,54,30.20,30.07,8,1,8,0.00
2013-1-4,41.2,37.5,32.6,37.5,33.8,28.7,92,87,71,30.28,30.14,6,1,6,0.31
2013-1-5,65.7,43.1,29.2,52.7,37.9,25.6,94,83,53,30.15,29.99,6,0,6,0.02
2013-1-6,69.5,42.8,26.8,48.6,30.0,22.5,92,66,31,30.16,30.05,10,2,10,0.01
2013-1-7,59.2,41.5,24.1,45.0,31.0,20.5,89,68,42,30.09,29.83,8,2,8,0.00
2013-1-8,50.2,47.4,44.3,48.5,44.6,38.6,94,90,71,29.84,29.66,7,1,7,0.75
2013-1-9,58.0,54.0,49.5,56.5,52.4,47.6,95,94,93,29.80,29.62,13,2,13,1.88
2013-1-10,70.4,52.9,38.2,52.3,45.1,34.5,95,77,46,29.82,29.75,17,3,17,0.00
2013-1-11,78.3,58.2,36.0,62.0,50.5,32.8,93,78,49,29.79,29.60,16,3,16,0.01
2013-1-12,76.0,64.0,43.6,67.9,58.5,34.3,94,83,63,29.71,29.47,13,3,13,0.01
2013-1-13,63.4,44.1,33.1,37.7,29.6,22.6,73,58,34,29.96,29.71,11,2,11,0.00
2013-1-14,53.6,39.0,30.2,31.5,25.8,21.1,70,60,41,30.02,29.85,13,3,13,0.00
2013-1-15,38.5,34.6,29.2,33.3,29.5,22.5,89,82,67,30.00,29.86,9,2,9,0.02
2013-1-16,67.0,40.5,23.2,36.4,23.0,17.3,81,55,25,30.08,29.94,13,2,13,0.00
2013-1-17,79.6,48.7,27.7,44.1,30.3,19.5,78,54,23,30.26,30.04,8,1,8,0.00
2013-1-18,74.2,46.1,26.1,46.7,29.5,21.6,87,58,26,30.27,30.08,9,2,9,0.00
2013-1-19,74.5,53.1,35.6,49.0,40.3,27.8,87,65,37,30.09,29.92,13,3,13,0.00
2013-1-20,87.1,55.9,32.8,55.9,38.9,29.0,90,59,23,30.02,29.86,9,1,9,0.00
2013-1-21,90.4,55.3,36.2,58.6,40.4,32.3,90,62,30,30.03,29.91,8,1,8,0.00
2013-1-22,77.8,51.9,34.0,52.7,40.6,29.6,86,68,40,30.09,29.97,13,2,13,0.00
2013-1-23,80.6,58.6,36.9,59.0,48.4,33.3,91,71,43,30.11,29.98,13,2,13,0.00
2013-1-24,89.6,67.4,52.0,66.4,56.3,47.7,91,71,38,30.02,29.89,12,3,12,0.00
2013-1-25,61.6,60.5,59.2,58.1,56.5,54.6,89,87,81,29.91,29.86,12,4,12,0.00
2013-1-26,52.2,50.3,48.4,49.2,45.5,43.9,91,84,75,29.96,29.89,3,0,4,0.00
2013-1-27,58.7,55.6,52.2,56.3,53.2,49.4,92,92,91,29.89,29.87,9,2,9,0.00
2013-2-10,71.3,59.0,49.3,63.5,47.3,38.0,93,68,34,29.82,29.53,13,1,13,0.20
2013-2-11,62.5,51.9,46.1,50.8,44.3,38.6,88,76,47,29.89,29.77,9,2,9,0.06
2013-2-12,78.5,56.9,45.2,61.1,45.2,29.5,93,69,29,29.86,29.61,16,2,16,0.02
2013-2-13,78.8,51.1,31.0,46.6,33.4,24.9,84,56,25,29.94,29.81,8,1,8,0.00
2013-2-14,82.8,54.3,27.9,51.8,32.9,23.7,87,52,18,29.89,29.77,11,2,11,0.00
2013-2-15,68.4,48.5,31.7,45.1,32.5,21.2,80,56,35,30.17,29.85,12,2,12,0.00
2013-2-16,80.1,47.7,25.6,39.3,26.6,18.4,78,50,19,30.21,29.98,12,2,12,0.00
2013-2-17,76.7,55.9,31.3,49.0,35.1,23.1,77,50,23,29.98,29.75,17,5,18,0.00
2013-2-18,86.8,66.4,51.8,59.5,45.5,26.7,79,52,19,29.89,29.63,16,5,16,0.00
2013-2-19,69.5,55.5,32.6,38.2,28.8,22.8,71,38,22,30.06,29.88,12,3,12,0.00
2013-2-20,59.9,53.5,50.2,58.3,43.2,31.9,95,70,40,29.92,29.45,11,4,11,0.04
2013-2-21,83.9,65.5,40.5,63.6,44.0,23.9,95,55,17,29.67,29.38,19,5,19,0.03
2013-2-22,63.9,46.5,36.4,35.7,31.6,27.5,77,58,32,29.86,29.63,9,2,9,0.00
2013-2-23,83.7,54.2,30.6,42.8,32.0,24.0,78,48,21,29.84,29.68,14,1,14,0.00
2013-2-24,76.0,56.2,29.7,55.9,41.4,23.9,84,61,35,29.72,29.39,15,4,15,0.00
2013-2-25,71.5,56.0,42.7,56.5,36.7,24.2,91,53,19,29.62,29.35,34,7,34,0.00
2013-2-26,79.9,53.7,33.1,37.8,30.1,23.9,71,45,19,29.73,29.62,12,2,12,0.00
2013-2-27,77.4,51.9,32.6,38.9,27.1,17.9,72,42,19,30.02,29.64,11,2,11,0.00
2013-2-28,72.0,47.7,30.2,35.5,24.7,17.9,65,44,21,30.11,29.97,11,2,11,0.00
2013-3-1,83.7,52.8,26.1,43.0,24.1,18.3,77,40,13,30.07,29.91,12,2,12,0.00
2013-3-2,73.6,49.8,31.3,35.1,26.3,21.0,70,44,19,30.20,30.04,13,2,13,0.00
2013-3-3,80.3,57.3,28.8,40.7,30.3,19.7,73,41,18,30.04,29.70,16,4,16,0.00
2013-3-4,92.9,69.9,53.5,52.0,43.6,36.9,75,44,18,29.70,29.49,15,6,15,0.00
2013-3-5,75.1,55.8,30.6,49.9,25.4,9.9,60,36,13,30.15,29.55,15,4,15,0.00
2013-3-6,71.8,46.7,25.7,25.9,17.8,11.2,62,36,12,30.23,29.99,9,2,9,0.00
2013-3-7,74.5,54.2,30.8,51.6,38.4,18.6,72,56,37,30.02,29.88,15,4,15,0.00
2013-3-8,62.6,59.1,56.2,60.7,54.9,49.5,93,86,71,29.95,29.80,12,4,12,0.05
2013-3-9,71.1,64.8,60.1,64.3,60.8,56.8,93,87,77,29.80,29.44,17,6,17,0.34
2013-3-10,77.9,58.1,35.6,60.5,43.1,28.3,92,62,29,29.92,29.54,9,2,9,0.66
2013-3-11,76.7,51.6,29.5,40.4,29.2,23.1,85,51,17,29.96,29.79,8,1,8,0.00
2013-3-12,83.9,58.4,30.1,41.8,33.0,24.3,83,46,18,30.08,29.84,13,2,13,0.00
2013-3-13,80.8,59.3,36.5,46.2,35.0,28.0,73,44,22,30.23,30.08,12,2,12,0.00
2013-3-14,82.3,63.2,44.3,52.6,43.4,35.6,80,51,29,30.17,30.01,13,3,13,0.00
2013-3-15,85.1,68.2,52.2,56.4,47.1,39.0,87,52,24,30.02,29.79,15,5,15,0.00
2013-3-16,87.1,71.0,56.5,59.3,53.7,46.8,84,58,32,29.79,29.55,17,6,17,0.00
2013-3-17,89.5,72.5,64.4,62.6,58.2,53.1,80,63,39,29.62,29.47,14,4,14,0.00
2013-3-20,65.5,52.9,45.9,39.8,38.4,35.4,77,60,33,29.89,29.82,6,1,7,0.00
2013-3-21,77.4,63.2,45.7,58.7,51.2,39.0,82,66,49,29.82,29.41,18,4,18,0.00
2013-3-22,96.3,71.4,51.7,69.0,58.1,44.2,86,65,35,29.60,29.43,12,4,12,0.00
2013-3-23,81.5,60.9,48.6,60.9,50.8,43.4,87,72,40,29.61,29.40,8,2,8,0.00
2013-3-24,69.7,52.5,32.2,53.2,31.4,22.0,88,49,24,29.97,29.52,12,3,12,0.00
2013-3-25,65.7,45.3,28.1,29.5,20.9,16.5,72,43,18,30.18,29.96,11,2,11,0.00
2013-3-26,75.8,49.0,24.5,39.8,22.3,17.9,78,42,16,30.25,30.06,9,2,9,0.00
2013-3-27,72.9,54.9,29.0,45.2,35.8,20.3,75,51,31,30.09,29.93,16,4,16,0.00
2013-3-28,73.8,62.5,52.6,58.2,53.1,44.8,83,72,56,29.99,29.90,13,4,13,0.00
2013-3-29,81.9,67.9,57.2,59.6,55.6,53.6,90,67,42,29.98,29.85,14,4,14,0.00
2013-3-30,83.2,70.5,62.8,62.6,58.7,54.6,83,68,45,29.89,29.69,17,4,17,0.00
2013-3-31,76.5,67.9,60.1,66.1,61.2,55.0,87,79,67,29.79,29.68,8,2,8,0.02
2013-4-1,93.2,70.8,51.5,70.2,58.7,48.3,91,68,42,29.86,29.71,13,3,13,0.00
2013-4-2,79.2,64.6,50.8,67.2,60.0,48.0,93,85,63,29.81,29.63,23,2,23,0.58
2013-4-3,53.1,49.6,46.6,51.4,47.8,44.8,94,94,91,29.93,29.66,9,2,9,0.36
2013-4-4,62.3,48.6,36.4,49.8,42.8,32.8,94,81,59,30.00,29.89,10,2,10,0.00
2013-4-5,78.1,55.8,31.9,60.5,41.6,29.1,93,64,35,30.04,29.84,8,2,8,0.00
2013-4-6,81.7,65.9,49.0,57.3,52.2,43.5,87,63,41,29.85,29.65,19,5,19,0.00
2013-4-7,79.7,68.0,60.5,63.7,59.2,54.4,84,74,55,29.72,29.55,14,5,14,0.00
2013-4-8,72.7,68.1,64.8,65.7,62.4,58.6,90,82,74,29.63,29.48,15,6,15,0.00
2013-4-9,82.8,72.9,68.4,67.9,65.2,62.9,86,78,58,29.52,29.40,17,6,17,0.00
2013-4-10,72.5,54.9,42.8,66.8,49.7,38.3,92,83,69,29.75,29.45,19,4,19,0.32
2013-4-11,73.1,54.9,40.7,46.7,39.8,35.6,84,60,33,29.76,29.60,8,2,8,0.02
2013-4-12,85.3,61.5,37.1,59.9,41.8,33.5,91,55,25,29.79,29.65,10,2,10,0.00
2013-4-13,83.7,64.8,51.5,58.8,50.4,43.7,83,62,30,29.76,29.59,11,2,11,0.00
2013-4-14,90.2,72.4,56.5,65.5,58.6,49.9,88,64,40,29.62,29.40,18,4,18,0.00
2013-4-15,89.5,76.9,67.7,67.1,64.8,63.4,88,68,46,29.62,29.49,15,5,15,0.00
2013-4-16,88.9,76.9,67.1,67.7,64.9,61.5,84,68,48,29.71,29.60,14,6,14,0.00
2013-4-17,85.0,75.3,71.3,69.4,67.7,66.0,91,78,56,29.70,29.48,18,6,18,0.00
2013-4-18,72.4,60.7,47.9,69.4,52.2,37.0,91,75,52,29.91,29.45,15,4,15,0.38
2013-4-19,77.4,55.9,37.3,49.2,33.6,26.6,81,49,19,30.09,29.91,11,2,11,0.00
2013-4-20,74.7,54.4,29.9,49.3,32.0,25.4,89,50,21,30.01,29.79,14,3,14,0.00
2013-4-21,78.8,63.9,45.7,54.3,49.0,39.5,84,60,42,29.94,29.81,11,3,11,0.00
2013-4-22,86.6,71.3,52.4,60.3,56.0,48.2,88,61,38,29.89,29.67,13,4,13,0.00
2013-4-23,79.6,63.6,47.5,65.5,54.1,39.2,86,72,51,29.94,29.64,12,3,13,0.00
2013-4-24,68.6,54.2,42.8,40.5,36.6,33.8,76,54,33,30.07,29.94,12,3,12,0.00
2013-4-25,69.3,59.8,51.3,46.2,42.6,38.3,64,53,41,30.12,29.96,8,2,8,0.00
2013-4-26,77.0,67.2,57.6,68.8,60.5,43.2,92,80,49,29.97,29.81,13,3,13,0.02
2013-4-27,95.8,75.2,66.6,75.1,65.2,59.7,91,73,44,29.89,29.75,8,2,8,0.04
2013-4-28,95.4,76.1,60.1,72.4,60.2,53.3,91,62,33,29.85,29.66,10,2,10,0.00
2013-4-29,98.1,73.6,62.3,74.3,61.9,58.1,90,70,38,29.74,29.59,18,3,18,0.26
2013-4-30,92.3,72.6,59.2,70.8,61.5,55.2,94,71,43,29.66,29.53,10,2,10,0.01
2013-5-1,89.5,76.3,60.7,70.4,63.8,55.5,90,68,46,29.78,29.59,11,3,11,0.00
2013-5-2,69.8,54.4,44.6,61.7,45.6,34.5,83,72,65,30.14,29.72,13,3,13,0.00
2013-5-3,75.8,55.9,38.5,40.3,32.1,26.8,74,46,19,30.13,29.87,14,2,14,0.00
2013-5-4,90.7,61.9,32.8,49.2,34.9,26.8,83,45,15,29.87,29.68,15,2,16,0.00
2013-5-5,83.9,61.9,38.7,48.6,40.4,30.4,75,48,29,29.96,29.80,11,2,11,0.00
2013-5-6,84.8,62.9,42.7,56.3,44.8,37.2,84,56,28,29.95,29.80,8,1,8,0.00
2013-5-7,88.9,69.8,43.4,61.6,47.8,39.3,87,51,26,29.89,29.72,11,2,11,0.00
2013-5-8,83.9,72.5,60.1,63.6,59.2,51.8,85,65,46,29.82,29.69,16,4,16,0.00
2013-5-9,78.1,69.3,64.4,67.6,63.4,57.1,90,82,70,29.81,29.60,11,3,11,0.23
2013-5-10,90.4,69.0,56.9,70.0,60.7,54.0,93,78,42,29.85,29.62,17,2,17,1.73
2013-5-11,85.9,69.3,55.1,71.6,56.1,48.1,93,67,41,29.96,29.82,10,2,10,0.01
2013-5-12,85.0,65.5,48.6,58.3,49.6,41.4,89,60,30,30.07,29.92,8,2,8,0.00
2013-5-13,99.9,70.0,44.1,62.8,47.7,40.1,89,52,21,30.06,29.95,10,2,10,0.00
2013-5-14,89.5,74.7,57.8,65.3,58.5,49.0,81,59,33,30.02,29.80,16,5,16,0.00
2013-5-15,85.0,73.2,63.5,71.7,66.5,60.3,94,80,60,29.90,29.62,16,6,16,0.28
2013-5-16,72.9,69.3,64.4,67.2,65.0,61.6,92,86,83,29.70,29.61,13,4,13,0.18
2013-5-18,96.1,83.4,69.3,71.8,66.6,62.1,89,60,41,29.73,29.61,16,6,16,0.00
2013-5-19,92.7,80.3,70.6,71.0,67.2,63.5,84,66,49,29.67,29.54,16,6,16,0.00
2013-5-20,93.1,81.0,71.1,71.5,68.1,65.4,86,67,47,29.67,29.51,16,6,16,0.00
2013-5-21,92.0,76.8,64.6,74.9,67.8,57.4,86,75,51,29.71,29.53,15,5,15,0.05
2013-5-22,94.0,76.5,51.7,70.2,58.0,48.6,92,58,29,29.75,29.63,8,2,8,0.02
2013-5-23,86.9,78.7,69.7,71.7,68.9,61.8,88,73,58,29.86,29.70,12,3,12,0.00
2013-5-24,81.4,71.8,65.7,72.2,67.4,63.2,94,86,70,29.93,29.82,14,2,14,1.76
2013-5-25,80.5,72.4,65.7,72.9,67.8,63.6,95,86,66,29.94,29.84,13,3,13,1.17
2013-5-26,84.8,76.5,69.7,73.4,69.3,65.7,94,79,63,29.91,29.78,12,4,12,0.36
2013-5-27,87.7,77.3,69.8,71.6,68.2,65.3,89,75,56,29.82,29.65,15,5,15,0.00
2013-5-28,89.5,78.9,70.9,70.6,67.8,65.8,85,70,51,29.72,29.58,17,6,17,0.00
2013-5-29,83.9,76.1,72.0,74.2,69.2,67.1,89,79,64,29.70,29.53,17,6,17,0.15
2013-5-30,89.1,80.0,73.1,74.3,70.1,68.5,86,73,55,29.66,29.57,15,6,15,0.00
2013-5-31,90.9,82.4,74.5,73.8,71.3,69.2,86,70,56,29.69,29.57,16,5,16,0.00
2013-6-1,97.4,84.0,74.3,74.9,71.1,69.0,85,67,46,29.73,29.60,14,4,14,0.00
2013-6-2,89.5,76.1,62.3,70.8,63.1,56.2,91,67,37,29.89,29.73,11,2,11,0.08
2013-6-3,95.8,77.4,56.3,71.9,59.7,53.5,92,59,31,29.81,29.66,9,2,9,0.00
2013-6-4,94.0,81.0,64.1,70.0,63.9,57.2,88,59,39,29.73,29.62,11,3,11,0.00
2013-6-5,96.5,81.9,68.8,71.1,65.1,61.3,87,59,39,29.74,29.58,16,4,16,0.00
2013-6-6,103.7,82.4,67.9,74.6,64.9,60.6,87,59,30,29.77,29.62,10,2,10,0.00
2013-6-7,94.9,76.3,61.2,65.0,58.3,51.8,86,58,30,29.84,29.71,10,1,10,0.00
2013-6-8,92.5,77.0,53.5,68.1,59.7,48.9,87,59,34,29.76,29.61,11,3,11,0.00
2013-6-9,94.7,78.7,67.0,81.6,68.2,62.2,92,72,51,29.80,29.66,11,2,11,0.19
2013-6-10,108.2,84.5,65.0,77.7,66.3,57.6,92,59,31,29.82,29.73,10,2,10,0.00
2013-6-11,97.4,83.3,72.0,74.3,68.5,62.7,89,63,42,29.86,29.77,13,3,13,0.00
2013-6-12,97.9,82.4,70.9,74.8,69.8,64.4,90,68,42,29.88,29.78,13,3,13,0.05
2013-6-13,100.6,82.8,70.9,77.0,69.1,62.9,90,66,40,29.90,29.76,12,2,12,0.00
2013-6-14,95.4,80.6,68.9,75.7,69.7,64.5,87,71,45,29.83,29.73,8,1,8,0.00
2013-6-15,97.6,81.6,73.1,77.2,70.8,67.6,89,71,48,29.83,29.73,12,2,12,0.01
2013-6-16,101.2,86.3,72.2,76.1,68.7,63.8,88,59,38,29.85,29.73,11,3,11,0.00
2013-6-17,99.4,86.1,74.2,76.1,68.7,62.8,84,59,39,29.84,29.68,11,3,11,0.03
2013-6-18,95.9,81.0,67.7,80.1,70.1,64.4,92,72,45,29.88,29.71,8,2,8,0.50
2013-6-19,99.9,85.2,69.7,77.8,68.9,65.4,90,61,39,29.80,29.73,11,2,11,0.00
2013-6-20,97.0,84.7,72.5,72.5,67.3,63.1,86,58,38,29.89,29.78,13,4,13,0.00
2013-6-21,98.3,85.7,73.4,75.2,66.9,60.2,87,57,34,29.90,29.79,16,4,16,0.02
2013-6-22,97.2,85.6,74.3,72.7,66.9,61.3,84,57,36,29.88,29.72,14,5,14,0.00
2013-6-23,95.4,84.7,73.4,72.5,66.2,57.8,86,57,35,29.82,29.72,12,4,12,0.00
2013-6-24,96.5,84.7,74.2,72.3,68.2,63.9,85,60,38,29.86,29.72,16,5,16,0.00
2013-6-25,98.8,86.7,75.6,72.2,67.3,61.8,83,56,33,29.83,29.69,15,6,15,0.00
2013-6-26,99.7,86.3,74.7,74.4,68.1,63.9,81,57,35,29.81,29.71,13,5,13,0.00
2013-6-27,104.8,88.0,73.1,72.8,64.8,53.8,83,51,23,29.87,29.73,10,3,10,0.00
2013-6-28,113.4,90.8,71.3,74.2,65.1,58.5,81,48,22,29.83,29.65,10,2,10,0.00
2013-6-29,112.0,91.4,68.8,75.0,62.5,53.8,76,43,18,29.71,29.60,10,2,10,0.00
2013-6-30,105.7,85.4,70.7,73.0,63.9,56.7,81,51,29,29.80,29.67,12,2,12,0.02
2013-7-1,99.9,81.6,63.5,60.9,54.2,48.0,62,41,23,29.85,29.75,9,2,9,0.00
2013-7-2,102.8,79.1,60.1,63.3,50.5,42.3,72,42,20,29.92,29.80,10,2,10,0.00
2013-7-3,105.8,78.7,54.7,63.7,48.5,43.3,73,40,17,29.87,29.74,9,2,9,0.00
2013-7-4,98.6,80.2,61.6,68.4,56.1,45.5,80,47,25,29.83,29.72,10,2,10,0.00
2013-7-5,104.2,86.3,63.2,72.1,59.5,52.5,80,45,23,29.82,29.67,10,2,10,0.00
2013-7-6,101.2,86.4,65.5,71.6,63.2,57.4,80,49,29,29.78,29.66,13,3,13,0.00
2013-7-7,99.4,85.4,68.0,74.8,66.9,61.7,82,57,33,29.82,29.71,11,2,12,0.00
2013-7-8,92.5,80.9,75.2,75.3,70.3,67.0,83,71,51,29.94,29.82,13,3,13,0.06
2013-7-9,99.9,87.0,71.8,75.4,68.7,64.4,89,59,34,29.98,29.83,12,4,12,0.00
2013-7-10,108.0,88.8,72.5,74.5,67.8,62.2,86,54,30,29.93,29.76,11,3,11,0.00
2013-7-11,107.5,89.2,74.5,74.9,65.8,57.6,81,50,27,29.85,29.71,11,2,11,0.00
2013-7-12,108.2,90.7,72.7,72.7,63.8,57.2,75,44,24,29.81,29.71,11,2,11,0.00
2013-7-13,116.3,91.5,69.8,73.1,61.9,56.4,76,42,21,29.83,29.68,10,2,10,0.00
2013-7-14,113.2,80.6,68.4,69.5,63.1,57.8,90,58,22,29.77,29.70,16,3,16,0.01
2013-7-15,73.1,69.1,66.6,71.3,67.1,64.0,95,93,90,29.86,29.74,8,2,8,2.59
2013-7-16,90.4,76.4,68.4,77.4,69.8,66.8,96,82,53,29.97,29.84,12,2,12,0.11
2013-7-17,88.0,74.3,68.6,78.7,69.9,66.4,95,87,62,30.01,29.92,14,1,14,0.65
2013-7-18,94.7,80.4,68.4,79.0,69.3,64.6,95,72,45,30.00,29.82,8,1,8,0.00
2013-7-19,104.8,83.0,65.2,82.1,66.8,61.5,92,63,31,29.90,29.74,9,2,9,0.00
2013-7-20,101.9,83.9,71.1,76.4,68.8,64.7,87,64,39,29.84,29.68,10,2,10,0.00
2013-7-21,102.2,82.7,71.5,77.4,71.5,67.2,90,72,40,29.79,29.71,14,2,14,0.27
2013-7-22,96.5,85.3,74.5,77.0,71.7,68.2,89,66,46,29.82,29.72,15,4,15,0.00
2013-7-23,98.6,86.0,75.4,75.2,69.3,63.2,83,60,39,29.84,29.70,16,4,16,0.00
2013-7-24,101.3,85.4,73.6,76.1,71.4,67.5,86,65,42,29.84,29.71,12,2,12,0.00
2013-7-25,110.2,86.6,70.9,79.4,69.0,65.0,88,60,31,29.86,29.78,8,2,8,0.00
2013-7-26,102.1,86.5,73.1,74.7,69.5,65.6,88,60,38,29.86,29.70,13,3,13,0.42
2013-7-27,91.8,78.6,67.7,75.2,70.0,62.8,92,76,54,29.83,29.73,10,2,10,0.00
2013-7-28,96.8,81.2,67.3,78.5,69.1,62.8,92,69,47,29.79,29.67,9,2,9,0.00
2013-7-29,97.6,86.1,76.0,74.2,68.7,60.0,85,59,33,29.85,29.76,14,5,14,0.00
2013-7-30,99.4,86.0,74.0,73.8,68.9,63.5,85,59,40,29.92,29.80,14,4,14,0.00
2013-7-31,105.8,87.3,73.1,73.4,67.0,62.2,86,55,28,29.92,29.77,12,3,12,0.00
2013-8-1,111.4,88.8,70.9,75.9,67.2,63.7,81,53,27,29.86,29.73,8,2,8,0.00
2013-8-2,103.9,88.1,72.5,70.7,65.2,60.4,73,49,27,29.82,29.72,13,2,13,0.00
2013-8-3,102.4,87.6,74.9,73.8,67.3,61.7,82,54,34,29.86,29.76,12,3,12,0.00
2013-8-4,102.1,88.1,74.2,77.5,70.0,65.6,86,57,38,29.92,29.76,11,3,11,0.00
2013-8-5,106.2,89.1,72.9,73.6,67.1,62.1,83,51,31,29.87,29.71,13,4,13,0.00
2013-8-6,103.7,88.8,73.3,74.7,68.2,61.1,82,54,30,29.79,29.65,13,4,13,0.00
2013-8-7,106.4,89.8,74.5,75.5,68.4,59.4,83,53,29,29.76,29.62,13,4,13,0.00
2013-8-8,106.4,89.4,74.0,74.0,66.2,56.4,84,51,26,29.74,29.62,11,3,11,0.00
2013-8-9,104.0,86.6,71.8,75.1,64.4,53.0,89,53,23,29.81,29.70,10,2,10,0.00
2013-8-10,118.6,89.4,70.2,77.9,66.9,56.7,86,53,24,29.89,29.77,17,2,17,0.04
2013-8-11,113.8,86.2,70.9,82.5,69.9,65.0,92,64,30,29.92,29.80,13,2,13,0.04
2013-8-12,105.5,86.6,69.7,77.3,67.8,62.6,89,58,33,29.91,29.77,12,2,12,0.00
2013-8-13,110.2,89.4,73.3,74.6,66.2,60.1,82,50,25,29.88,29.72,13,2,13,0.00
2013-8-14,116.1,85.8,73.4,74.3,68.0,60.9,89,59,24,29.86,29.74,12,2,12,0.05
2013-8-15,94.9,78.7,69.8,76.6,70.2,66.9,94,77,48,29.86,29.76,6,1,6,0.13
2013-8-16,96.8,78.4,67.3,79.7,68.0,60.1,94,73,39,29.89,29.76,10,1,10,0.03
2013-8-17,99.9,79.2,63.0,69.6,61.1,54.9,90,58,33,29.89,29.77,10,2,10,0.00
2013-8-18,106.9,80.5,58.9,71.0,57.7,53.1,84,52,23,29.90,29.81,9,2,9,0.00
2013-8-19,105.3,81.4,60.8,72.6,59.3,53.8,80,51,28,29.89,29.75,9,2,9,0.00
2013-8-20,109.4,84.2,62.8,73.2,61.4,54.5,82,51,26,29.86,29.76,12,2,12,0.00
2013-8-21,101.3,83.9,71.3,74.6,66.5,61.7,82,59,34,29.92,29.80,10,2,10,0.00
2013-8-22,106.4,86.6,68.6,75.3,67.0,63.0,83,56,32,29.92,29.76,8,2,8,0.00
2013-8-23,111.2,87.3,69.1,78.9,65.7,60.8,83,53,31,29.86,29.73,10,2,10,0.00
2013-8-24,114.5,87.9,72.7,77.4,65.6,61.2,77,51,25,29.89,29.77,10,2,10,0.00
2013-8-25,108.2,85.6,68.8,78.4,66.2,62.4,82,55,33,29.92,29.85,12,2,12,0.00
2013-8-26,91.8,80.0,73.1,71.6,68.1,64.5,84,68,45,29.97,29.85,12,3,12,0.00
2013-8-27,86.4,76.4,68.8,76.1,67.9,61.1,91,76,50,29.95,29.85,7,2,8,0.06
2013-8-28,103.0,83.1,66.2,78.4,66.0,61.6,91,61,31,29.94,29.83,10,2,10,0.00
2013-8-29,116.3,87.1,66.6,75.2,63.7,59.2,84,51,24,29.92,29.79,9,1,9,0.00
2013-8-30,118.1,89.9,70.7,70.6,62.0,58.3,69,44,19,29.86,29.71,9,2,9,0.00
2013-8-31,114.8,90.5,69.8,72.2,64.4,59.0,77,47,22,29.78,29.65,9,2,9,0.00
2013-9-1,113.6,89.5,71.8,73.5,65.7,61.8,77,48,26,29.76,29.64,9,2,9,0.00
2013-9-2,113.2,85.9,72.4,78.8,68.9,63.0,89,61,27,29.81,29.67,12,1,12,0.15
2013-9-3,114.1,85.3,67.3,81.1,68.3,63.3,92,63,24,29.84,29.72,9,1,9,0.03
2013-9-4,113.8,87.3,72.4,85.6,68.7,63.1,91,59,26,29.90,29.76,9,2,9,0.06
2013-9-5,107.8,86.2,67.9,77.5,66.0,62.2,84,55,30,29.94,29.82,11,2,14,0.00
2013-9-6,110.7,86.6,67.3,79.1,66.2,61.0,86,55,29,29.93,29.78,11,2,11,0.00
2013-9-7,105.8,84.2,67.1,78.7,66.4,62.1,85,59,32,29.87,29.73,16,2,16,0.00
2013-9-8,100.1,80.6,66.6,77.9,66.8,62.3,88,66,36,29.83,29.71,12,2,12,0.00
2013-9-9,97.6,79.1,66.2,74.7,66.3,61.6,86,68,38,29.83,29.74,12,2,14,0.00
2013-9-10,94.0,78.6,68.0,72.8,66.8,62.1,89,69,43,29.90,29.80,17,2,17,0.00
2013-9-11,97.7,81.7,68.6,74.9,65.3,60.3,87,61,36,29.94,29.81,10,2,10,0.00
2013-9-12,105.3,83.6,65.5,76.5,63.4,59.3,84,55,31,29.90,29.75,10,2,10,0.00
2013-9-13,114.7,85.2,65.2,75.9,60.8,56.5,82,49,22,29.81,29.65,10,2,10,0.00
2013-9-14,108.2,86.0,68.0,70.8,62.9,57.2,78,50,22,29.78,29.67,10,2,10,0.01
2013-9-15,94.7,81.4,68.4,73.3,66.0,61.6,84,62,40,29.86,29.75,10,2,10,0.00
2013-9-16,96.1,78.8,67.7,72.7,66.7,61.3,89,68,42,29.90,29.78,9,2,9,0.16
2013-9-17,97.0,80.0,68.8,77.8,68.9,64.7,93,72,43,29.90,29.76,9,2,9,0.00
2013-9-18,99.4,82.7,67.0,77.2,66.6,61.8,89,62,34,29.85,29.70,10,2,10,0.00
2013-9-19,94.3,79.3,71.8,75.7,69.8,65.5,90,74,47,29.79,29.65,8,1,8,0.61
2013-9-20,73.8,70.7,66.6,71.4,68.6,64.8,94,93,90,29.71,29.63,14,1,14,2.74
2013-9-21,91.6,72.7,54.9,72.8,59.5,48.3,95,68,33,29.77,29.67,10,2,10,0.00
2013-9-22,90.7,69.0,50.0,66.9,51.1,45.9,90,59,29,29.74,29.61,9,1,9,0.00
2013-9-23,100.8,72.7,49.5,67.3,52.2,45.9,90,56,22,29.67,29.57,6,1,6,0.00
2013-9-24,113.2,79.4,55.3,71.1,58.1,50.6,87,55,22,29.75,29.66,8,1,8,0.00
2013-9-25,111.4,80.9,58.3,72.0,59.7,54.2,87,55,23,29.73,29.60,9,1,9,0.00
2013-9-26,102.1,79.4,57.2,70.7,58.9,50.2,84,54,22,29.73,29.64,12,2,12,0.00
2013-9-27,91.8,78.6,70.7,75.6,70.5,65.4,87,77,55,29.75,29.65,14,3,14,0.00
2013-9-28,97.7,78.0,69.1,77.1,71.7,66.3,92,82,48,29.84,29.70,11,3,11,0.68
2013-9-29,77.9,66.1,58.9,68.4,62.0,55.8,94,87,67,29.89,29.75,6,1,6,0.15
2013-9-30,106.0,74.2,52.7,76.5,57.6,50.4,93,63,26,29.78,29.63,6,1,6,0.01
2013-10-1,95.9,72.2,55.1,72.8,61.5,51.0,90,72,41,29.75,29.66,9,2,9,0.00
2013-10-2,93.1,78.5,70.6,75.1,68.7,64.1,87,73,50,29.79,29.68,10,2,10,0.00
2013-10-3,99.4,81.4,71.3,76.2,68.6,65.6,89,68,41,29.76,29.66,12,3,12,0.00
2013-10-4,96.7,79.8,69.5,73.0,67.5,64.7,88,68,41,29.74,29.66,15,4,15,0.00
2013-10-5,106.0,78.8,68.2,80.1,68.6,64.5,89,74,33,29.80,29.70,10,2,10,0.00